5CL2 weather

St Louise Regional Hospital Heliport
Gilroy, California, United States

Public forecast

Using degrees Fahrenheit for public forecast. Weather courtesy of forecast.io.

Closest aviation weather report (METAR) to St Louise Regional Hospital Heliport

Closest report is San Martin Airport, 3.0 nm (5.6 km) NNW. Retrieved UTC (0 seconds ago):

Closest aviation forecast (TAF) to St Louise Regional Hospital Heliport

Closest forecast is Salinas Municipal Airport, 22.5 nm (41.6 km) S. Retrieved 2019/10/17 06:24 UTC (5 hours ago):

TAF KSNS 170521Z 1706/1806 36004KT P6SM BKN150 FM170800 VRB03KT P6SM SCT025 BKN150 FM171000 VRB04KT P6SM BKN015 FM171300 31008KT 6SM BR OVC007 FM171700 29006KT P6SM SCT015 BKN200 FM171900 29012KT P6SM SCT200 FM180400 32006KT P6SM SKC